Carmel, Colorado
Current Conditions -  °F | °C
As of 7:52 PM on Wednesday 22 Oct 2014 (Local Time) from KALS Reporting Station
Few Clouds Few Clouds  
Wind Chill: 50°   Ceiling: Unl
Heat Index: 50°   Visibility: 10mi
Dew Point: 33°   Wind: 10mph
Humidity: 52%   Direction: 320°NW
Pressure: 30.24"   Gusts: NA
Location:  37.469°N, 105.836°W
Report Text: KALS 230152Z AUTO 32009KT 10SM FEW080 10/01 A3024 RMK AO2 SLP210 T01000006
Loading
Personal Weather Stations






























Interactive Weather Map
Tropical Storm Tracking
New forecast layout! Learn more

10-Day Weather Forecast

Advertisements
Track Severe Weather on mobile